| time (UTC) | temp C | wind direction | speed KPH | gust KPH | rain 1hr cm | rain 24hr cm | rain mn cm | humidity % | barometer mb |
| 20260509034004 | 17 | 225 | 3.2 | 9.7 | 0.00 | 2.49 | 0.33 | 89 | 993.0 |
| 20260509033004 | 17 | 270 | 6.4 | 11.3 | 0.00 | 2.49 | 0.33 | 91 | 992.8 |
| 20260509032004 | 17 | 252 | 1.6 | 4.8 | 0.00 | 2.49 | 0.33 | 91 | 992.6 |
| 20260509031004 | 17 | 270 | 3.2 | 12.9 | 0.00 | 2.49 | 0.33 | 91 | 992.9 |
| 20260509030004 | 17 | 342 | 4.8 | 12.9 | 0.00 | 2.49 | 0.33 | 90 | 993.0 |
| 20260509025003 | 17 | 250 | 1.6 | 4.8 | 0.00 | 2.49 | 0.33 | 89 | 993.0 |
| 20260509024004 | 17 | 260 | 3.2 | 8.0 | 0.00 | 2.49 | 0.33 | 89 | 993.3 |
| 20260509023004 | 17 | 225 | 3.2 | 9.7 | 0.00 | 2.49 | 0.33 | 88 | 993.4 |
| 20260509022004 | 17 | 260 | 3.2 | 4.8 | 0.00 | 2.49 | 0.33 | 89 | 993.3 |
| 20260509021004 | 17 | 253 | 3.2 | 4.8 | 0.00 | 2.49 | 0.33 | 89 | 993.3 |
| 20260509020004 | 17 | 270 | 3.2 | 8.0 | 0.00 | 2.49 | 0.33 | 88 | 993.3 |
| 20260509015004 | 17 | 225 | 4.8 | 19.3 | 0.03 | 2.49 | 0.33 | 86 | 993.2 |
| 20260509014004 | 18 | 270 | 8.0 | 16.1 | 0.03 | 2.49 | 0.33 | 87 | 992.9 |
| 20260509013007 | 20 | 270 | 4.8 | 11.3 | 0.03 | 2.49 | 0.33 | 90 | 992.8 |
| 20260509012005 | 18 | 288 | 4.8 | 16.1 | 0.03 | 2.49 | 0.33 | 93 | 993.0 |
| 20260509011004 | 17 | 300 | 8.0 | 25.7 | 0.10 | 2.49 | 0.33 | 92 | 993.4 |
| 20260509010003 | 17 | 228 | 9.7 | 19.3 | 0.10 | 2.49 | 0.33 | 95 | 993.5 |
| 20260509005003 | 17 | 344 | 6.4 | 11.3 | 0.08 | 2.46 | 0.30 | 96 | 993.4 |
| 20260509004003 | 16 | 279 | 3.2 | 11.3 | 0.08 | 2.46 | 0.30 | 97 | 993.6 |
| 20260509003003 | 16 | 225 | 1.6 | 4.8 | 0.08 | 2.46 | 0.30 | 95 | 993.6 |
| 20260509002004 | 16 | 225 | 3.2 | 9.7 | 0.08 | 2.46 | 0.30 | 92 | 993.9 |
| 20260509001004 | 17 | 246 | 8.0 | 20.9 | 0.03 | 2.39 | 0.23 | 88 | 994.1 |
| 20260509000004 | 18 | 315 | 9.7 | 20.9 | 0.03 | 2.39 | 0.23 | 88 | 994.1 |
| 20260508235004 | 18 | 236 | 9.7 | 22.5 | 0.03 | 2.39 | 0.23 | 84 | 994.1 |
| 20260508234004 | 18 | 309 | 8.0 | 27.4 | 0.03 | 2.39 | 0.23 | 89 | 994.1 |
| 20260508233004 | 18 | 343 | 12.9 | 24.1 | 0.03 | 2.39 | 0.23 | 91 | 994.2 |
| 20260508232004 | 17 | 306 | 14.5 | 25.7 | 0.03 | 2.39 | 0.23 | 91 | 994.2 |
| 20260508231005 | 17 | 270 | 9.7 | 27.4 | 0.00 | 2.36 | 0.20 | 88 | 994.1 |
| 20260508230004 | 18 | 297 | 9.7 | 29.0 | 0.00 | 2.36 | 0.20 | 88 | 994.0 |
| 20260508225004 | 18 | 315 | 9.7 | 29.0 | 0.00 | 2.36 | 0.20 | 87 | 994.3 |
| 20260508224004 | 18 | 315 | 11.3 | 24.1 | 0.00 | 2.36 | 0.20 | 87 | 994.1 |
| 20260508223004 | 18 | 245 | 14.5 | 37.0 | 0.00 | 2.36 | 0.20 | 89 | 994.1 |
| 20260508222004 | 18 | 33 | 9.7 | 24.1 | 0.00 | 2.36 | 0.20 | 90 | 994.3 |
| 20260508221004 | 18 | 307 | 11.3 | 25.7 | 0.00 | 2.36 | 0.20 | 87 | 994.3 |
| 20260508220004 | 18 | 338 | 9.7 | 20.9 | 0.00 | 2.36 | 0.20 | 90 | 994.2 |
| 20260508215004 | 18 | 315 | 8.0 | 24.1 | 0.00 | 2.36 | 0.20 | 91 | 994.2 |
| 20260508214004 | 18 | 338 | 11.3 | 20.9 | 0.00 | 2.36 | 0.20 | 92 | 994.4 |
| 20260508213006 | 18 | 318 | 11.3 | 29.0 | 0.03 | 2.36 | 0.20 | 94 | 994.3 |
| 20260508212004 | 17 | 317 | 9.7 | 20.9 | 0.03 | 2.36 | 0.20 | 96 | 994.2 |
| 20260508211004 | 17 | 285 | 8.0 | 20.9 | 0.03 | 2.36 | 0.20 | 97 | 994.2 |
| 20260508210004 | 16 | 356 | 8.0 | 16.1 | 0.03 | 2.36 | 0.20 | 98 | 994.1 |
| 20260508205004 | 16 | 20 | 8.0 | 16.1 | 0.18 | 2.36 | 0.20 | 98 | 994.3 |
| 20260508204004 | 16 | 343 | 8.0 | 19.3 | 0.18 | 2.36 | 0.20 | 98 | 994.3 |
| 20260508203003 | 15 | 270 | 6.4 | 14.5 | 0.13 | 2.34 | 0.18 | 98 | 994.3 |
| 20260508202004 | 14 | 346 | 4.8 | 12.9 | 0.13 | 2.34 | 0.18 | 98 | 994.3 |
| 20260508201004 | 14 | 155 | 8.0 | 12.9 | 0.13 | 2.34 | 0.18 | 97 | 994.4 |
| 20260508200004 | 14 | 347 | 6.4 | 37.0 | 0.13 | 2.34 | 0.18 | 93 | 994.6 |
| 20260508195004 | 17 | 315 | 6.4 | 20.9 | 0.00 | 2.21 | 0.03 | 89 | 993.9 |
| 20260508194003 | 17 | 356 | 11.3 | 22.5 | 0.00 | 2.21 | 0.03 | 90 | 993.9 |
| 20260508193006 | 17 | 313 | 8.0 | 22.5 | 0.00 | 2.21 | 0.03 | 90 | 993.8 |
| 20260508192003 | 17 | 345 | 9.7 | 20.9 | 0.00 | 2.21 | 0.03 | 91 | 993.7 |
| 20260508191004 | 17 | 0 | 11.3 | 24.1 | 0.00 | 2.21 | 0.03 | 91 | 993.8 |
| 20260508190004 | 17 | 41 | 9.7 | 22.5 | 0.00 | 2.21 | 0.03 | 91 | 994.0 |
| 20260508185004 | 17 | 0 | 8.0 | 19.3 | 0.00 | 2.21 | 0.03 | 91 | 993.9 |
| 20260508184004 | 17 | 329 | 11.3 | 19.3 | 0.00 | 2.21 | 0.03 | 92 | 994.1 |
| 20260508183004 | 17 | 315 | 12.9 | 22.5 | 0.00 | 2.21 | 0.03 | 92 | 993.9 |
| 20260508182004 | 17 | 244 | 9.7 | 24.1 | 0.00 | 2.21 | 0.03 | 91 | 993.8 |
| 20260508181004 | 17 | 270 | 9.7 | 20.9 | 0.00 | 2.21 | 0.03 | 93 | 993.7 |
| 20260508180004 | 17 | 320 | 8.0 | 20.9 | 0.00 | 2.21 | 0.03 | 93 | 993.7 |
| 20260508175004 | 17 | 329 | 6.4 | 22.5 | 0.00 | 2.21 | 0.03 | 93 | 993.8 |
| 20260508174005 | 17 | 301 | 8.0 | 27.4 | 0.00 | 2.21 | 0.03 | 92 | 993.9 |
| 20260508173004 | 17 | 332 | 11.3 | 16.1 | 0.00 | 2.21 | 0.03 | 93 | 993.6 |
| 20260508172003 | 17 | 323 | 9.7 | 24.1 | 0.00 | 2.21 | 0.03 | 93 | 993.8 |
| 20260508171004 | 17 | 0 | 8.0 | 16.1 | 0.00 | 2.21 | 0.03 | 93 | 993.9 |
| 20260508170004 | 17 | 45 | 8.0 | 16.1 | 0.00 | 2.21 | 0.03 | 93 | 993.9 |
| 20260508165004 | 17 | 332 | 8.0 | 22.5 | 0.00 | 2.21 | 0.03 | 93 | 993.9 |
| 20260508164003 | 17 | 315 | 9.7 | 24.1 | 0.00 | 2.21 | 0.03 | 94 | 994.0 |
| 20260508163004 | 17 | 0 | 9.7 | 24.1 | 0.00 | 2.21 | 0.03 | 94 | 994.0 |
| 20260508162003 | 17 | 4 | 11.3 | 24.1 | 0.00 | 2.21 | 0.03 | 94 | 993.9 |
| 20260508161003 | 17 | 324 | 9.7 | 27.4 | 0.00 | 2.21 | 0.03 | 94 | 993.9 |
| 20260508160003 | 17 | 25 | 11.3 | 24.1 | 0.00 | 2.21 | 0.03 | 94 | 993.9 |
| 20260508155003 | 17 | 305 | 9.7 | 24.1 | 0.00 | 2.21 | 0.03 | 95 | 994.0 |
| 20260508154005 | 17 | 341 | 9.7 | 22.5 | 0.00 | 2.21 | 0.03 | 96 | 993.9 |
| 20260508152003 | 17 | 43 | 8.0 | 24.1 | 0.00 | 2.21 | 0.03 | 95 | 994.2 |
| 20260508151003 | 17 | 32 | 12.9 | 25.7 | 0.00 | 2.21 | 0.03 | 95 | 994.2 |
| 20260508150005 | 17 | 321 | 9.7 | 25.7 | 0.00 | 2.21 | 0.03 | 96 | 994.5 |
| 20260508145004 | 17 | 340 | 9.7 | 24.1 | 0.03 | 2.21 | 0.03 | 97 | 994.5 |
| 20260508144004 | 17 | 38 | 9.7 | 37.0 | 0.03 | 2.21 | 0.03 | 97 | 994.5 |
| 20260508143004 | 17 | 0 | 9.7 | 29.0 | 0.03 | 2.21 | 0.03 | 97 | 994.5 |
| 20260508142004 | 17 | 36 | 12.9 | 27.4 | 0.03 | 2.21 | 0.03 | 97 | 994.5 |
| 20260508141004 | 17 | 345 | 9.7 | 32.2 | 0.03 | 2.21 | 0.03 | 97 | 994.7 |
| 20260508140004 | 17 | 180 | 9.7 | 27.4 | 0.03 | 2.21 | 0.03 | 97 | 994.5 |
| 20260508135003 | 17 | 9 | 12.9 | 32.2 | 0.00 | 2.16 | 0.00 | 98 | 994.8 |
| 20260508134004 | 17 | 347 | 11.3 | 27.4 | 0.00 | 2.16 | 0.00 | 98 | 994.9 |
| 20260508133004 | 18 | 11 | 11.3 | 24.1 | 0.00 | 2.16 | 0.00 | 97 | 994.8 |
| 20260508132004 | 17 | 97 | 9.7 | 25.7 | 0.00 | 2.16 | 0.00 | 96 | 994.7 |
| 20260508131003 | 17 | 333 | 12.9 | 32.2 | 0.00 | 2.16 | 0.00 | 96 | 995.0 |
| 20260508130004 | 17 | 183 | 9.7 | 27.4 | 0.00 | 2.16 | 0.00 | 96 | 995.1 |
| 20260508125006 | 17 | 44 | 11.3 | 27.4 | 0.00 | 2.16 | 0.00 | 97 | 995.0 |
| 20260508124004 | 17 | 329 | 11.3 | 32.2 | 0.00 | 2.16 | 0.00 | 97 | 995.1 |
| 20260508123003 | 17 | 343 | 12.9 | 37.0 | 0.00 | 2.16 | 0.00 | 97 | 995.1 |
| 20260508122004 | 17 | 293 | 14.5 | 27.4 | 0.00 | 2.16 | 0.00 | 97 | 995.3 |
| 20260508121004 | 17 | 315 | 14.5 | 29.0 | 0.00 | 2.16 | 0.00 | 97 | 995.2 |
| 20260508120004 | 17 | 19 | 17.7 | 29.0 | 0.00 | 2.16 | 0.00 | 97 | 995.3 |
| 20260508115004 | 17 | 341 | 12.9 | 35.4 | 0.00 | 2.16 | 2.16 | 97 | 995.2 |
| 20260508114004 | 17 | 345 | 12.9 | 32.2 | 0.03 | 2.16 | 2.16 | 97 | 995.3 |
| 20260508113004 | 18 | 332 | 12.9 | 24.1 | 0.20 | 2.16 | 2.16 | 99 | 995.3 |
| 20260508112004 | 18 | 348 | 9.7 | 24.1 | 0.20 | 2.16 | 2.16 | 99 | 995.5 |
| 20260508111006 | 18 | 134 | 11.3 | 24.1 | 0.25 | 2.16 | 2.16 | 99 | 995.5 |
| 20260508110004 | 18 | 352 | 8.0 | 20.9 | 0.30 | 2.16 | 2.16 | 99 | 995.3 |
| 20260508105004 | 17 | 302 | 11.3 | 24.1 | 0.33 | 2.16 | 2.16 | 97 | 995.4 |
| 20260508104004 | 17 | 329 | 4.8 | 37.0 | 0.41 | 2.13 | 2.13 | 97 | 995.4 |
| 20260508103004 | 18 | 353 | 14.5 | 35.4 | 0.33 | 1.96 | 1.96 | 99 | 994.8 |
| 20260508102004 | 18 | 0 | 16.1 | 35.4 | 0.41 | 1.96 | 1.96 | 99 | 994.6 |
| 20260508101004 | 18 | 337 | 11.3 | 27.4 | 0.33 | 1.91 | 1.91 | 99 | 994.7 |
| 20260508100004 | 18 | 56 | 11.3 | 33.8 | 0.36 | 1.85 | 1.85 | 99 | 994.7 |
| 20260508095003 | 17 | 45 | 11.3 | 27.4 | 0.33 | 1.83 | 1.83 | 99 | 995.1 |
| 20260508094004 | 17 | 27 | 14.5 | 29.0 | 0.25 | 1.73 | 1.73 | 97 | 994.9 |
| 20260508093004 | 17 | 34 | 12.9 | 40.2 | 0.30 | 1.63 | 1.63 | 99 | 995.1 |
| 20260508092004 | 18 | 42 | 9.7 | 40.2 | 0.30 | 1.57 | 1.57 | 99 | 995.2 |
| 20260508091004 | 18 | 33 | 14.5 | 37.0 | 0.46 | 1.57 | 1.57 | 99 | 995.8 |
| 20260508090004 | 17 | 307 | 11.3 | 32.2 | 0.53 | 1.50 | 1.50 | 99 | 995.6 |
| 20260508085004 | 17 | 45 | 12.9 | 40.2 | 0.61 | 1.50 | 1.50 | 97 | 995.5 |
| 20260508084003 | 17 | 0 | 14.5 | 40.2 | 0.66 | 1.47 | 1.47 | 99 | 995.7 |
| 20260508083003 | 17 | 21 | 12.9 | 33.8 | 0.66 | 1.32 | 1.32 | 99 | 995.5 |
| 20260508082006 | 17 | 13 | 16.1 | 51.5 | 0.76 | 1.27 | 1.27 | 97 | 995.3 |
| 20260508081004 | 17 | 329 | 14.5 | 35.4 | 0.64 | 1.09 | 1.09 | 97 | 995.4 |
| 20260508080003 | 17 | 317 | 9.7 | 38.6 | 0.51 | 0.97 | 0.97 | 97 | 995.8 |
| 20260508075004 | 17 | 13 | 14.5 | 22.5 | 0.43 | 0.89 | 0.89 | 97 | 996.1 |
| 20260508074004 | 17 | 334 | 4.8 | 32.2 | 0.33 | 0.79 | 0.79 | 96 | 996.3 |
| 20260508073004 | 18 | 348 | 11.3 | 37.0 | 0.20 | 0.66 | 0.66 | 95 | 996.6 |
| 20260508072004 | 18 | 236 | 14.5 | 25.7 | 0.03 | 0.51 | 0.51 | 93 | 996.9 |
| 20260508071004 | 18 | 283 | 6.4 | 25.7 | 0.00 | 0.46 | 0.46 | 93 | 996.6 |
| 20260508070004 | 18 | 260 | 6.4 | 25.7 | 0.00 | 0.46 | 0.46 | 94 | 996.4 |
| 20260508065004 | 18 | 29 | 8.0 | 25.7 | 0.00 | 0.46 | 0.46 | 94 | 996.2 |
| 20260508064003 | 18 | 37 | 11.3 | 24.1 | 0.00 | 0.46 | 0.46 | 94 | 996.5 |
| 20260508063006 | 18 | 225 | 4.8 | 32.2 | 0.00 | 0.46 | 0.46 | 94 | 996.5 |
| 20260508062005 | 18 | 337 | 4.8 | 32.2 | 0.00 | 0.46 | 0.46 | 95 | 996.6 |
| 20260508061003 | 17 | 29 | 4.8 | 14.5 | 0.00 | 0.46 | 0.46 | 94 | 996.6 |
| 20260508060003 | 17 | 127 | 4.8 | 12.9 | 0.03 | 0.46 | 0.46 | 95 | 996.6 |
| 20260508055004 | 17 | 63 | 6.4 | 27.4 | 0.10 | 0.46 | 0.46 | 96 | 996.9 |
| 20260508054004 | 17 | 2 | 4.8 | 19.3 | 0.13 | 0.46 | 0.46 | 96 | 997.1 |
| 20260508053004 | 17 | 0 | 4.8 | 11.3 | 0.23 | 0.46 | 0.46 | 96 | 996.7 |
| 20260508052004 | 17 | 56 | 3.2 | 20.9 | 0.43 | 0.46 | 0.46 | 96 | 996.8 |
| 20260508051004 | 17 | 299 | 16.1 | 29.0 | 0.43 | 0.46 | 0.46 | 95 | 997.3 |
| 20260508050003 | 17 | 3 | 11.3 | 37.0 | 0.41 | 0.43 | 0.43 | 95 | 997.8 |
| 20260508045003 | 17 | 158 | 11.3 | 37.0 | 0.36 | 0.36 | 0.36 | 93 | 998.0 |
| 20260508044004 | 18 | 84 | 14.5 | 38.6 | 0.33 | 0.33 | 0.33 | 93 | 998.1 |
| 20260508043004 | 18 | 45 | 12.9 | 29.0 | 0.23 | 0.23 | 0.23 | 90 | 998.3 |
| 20260508042007 | 18 | 42 | 11.3 | 32.2 | 0.03 | 0.03 | 0.03 | 85 | 998.3 |
| 20260508041004 | 18 | 0 | 12.9 | 29.0 | 0.03 | 0.03 | 0.03 | 85 | 998.5 |
| 20260508040004 | 18 | 8 | 11.3 | 33.8 | 0.03 | 0.03 | 0.03 | 84 | 998.7 |
| 20260508035004 | 18 | 45 | 11.3 | 27.4 | 0.00 | 0.00 | 0.00 | 84 | 998.9 |